QSA weather

Public forecast

Using degrees Celsius for public forecast. Weather courtesy of forecast.io.

Current aviation weather report (METAR) for Sabadell Airport

Retrieved 2020/08/12 01:00 UTC (11 minutes ago):

LELL 120100Z AUTO 35001KT CAVOK 24/16 Q1015

Aviation forecast (TAF) for Sabadell Airport

Forecast is more than 6 hours old.

Retrieved 2020/08/11 15:12 UTC (10 hours ago):

TAF LELL 112007Z 1115/1215 CNL